Belmont, Michigan
Current Conditions -  °F | °C
As of 3:53 PM on Wednesday 26 Nov 2014 (Local Time) from KGRR Reporting Station
Overcast Overcast  
Wind Chill: 30°   Ceiling: 2500
Heat Index: 30°   Visibility: 10mi
Dew Point: 20°   Wind: 3mph
Humidity: 66%   Direction: 40°NE
Pressure: 30.14"   Gusts: NA
Location:  43.08°N, 85.61°W
Report Text: KGRR 262053Z 04003KT 10SM OVC025 M01/M07 A3014 RMK AO2 SLP215 T10111067 53005
Loading
Personal Weather Stations






























Interactive Weather Map New forecast layout! Learn more

10-Day Weather Forecast

Advertisements
Track Severe Weather on mobile